sensor_id;sensor_type;location;lat;lon;timestamp;P1;durP1;ratioP1;P2;durP2;ratioP2
48743;SDS011;34538;48.836;9.174;2023-03-01T00:02:05;19.27;;;9.90;;
48743;SDS011;34538;48.836;9.174;2023-03-01T00:04:31;18.70;;;9.63;;
48743;SDS011;34538;48.836;9.174;2023-03-01T00:07:00;19.77;;;10.40;;
48743;SDS011;34538;48.836;9.174;2023-03-01T00:09:27;19.27;;;10.50;;
48743;SDS011;34538;48.836;9.174;2023-03-01T00:11:54;20.07;;;10.23;;
48743;SDS011;34538;48.836;9.174;2023-03-01T00:14:22;18.67;;;9.57;;
48743;SDS011;34538;48.836;9.174;2023-03-01T00:16:49;18.30;;;10.20;;
48743;SDS011;34538;48.836;9.174;2023-03-01T00:19:17;19.83;;;10.07;;
48743;SDS011;34538;48.836;9.174;2023-03-01T00:21:45;19.93;;;10.53;;
48743;SDS011;34538;48.836;9.174;2023-03-01T00:24:12;19.90;;;10.47;;
48743;SDS011;34538;48.836;9.174;2023-03-01T00:26:39;17.43;;;10.13;;
48743;SDS011;34538;48.836;9.174;2023-03-01T00:29:06;18.77;;;10.53;;
48743;SDS011;34538;48.836;9.174;2023-03-01T00:31:34;19.53;;;10.20;;
48743;SDS011;34538;48.836;9.174;2023-03-01T00:34:02;17.20;;;9.17;;
48743;SDS011;34538;48.836;9.174;2023-03-01T00:36:31;21.30;;;10.43;;
48743;SDS011;34538;48.836;9.174;2023-03-01T00:38:59;17.20;;;9.50;;
48743;SDS011;34538;48.836;9.174;2023-03-01T00:41:25;18.30;;;10.37;;
48743;SDS011;34538;48.836;9.174;2023-03-01T00:43:53;22.70;;;11.23;;
48743;SDS011;34538;48.836;9.174;2023-03-01T00:46:21;16.93;;;10.17;;
48743;SDS011;34538;48.836;9.174;2023-03-01T00:48:50;16.70;;;8.97;;
48743;SDS011;34538;48.836;9.174;2023-03-01T00:51:18;17.60;;;10.17;;
48743;SDS011;34538;48.836;9.174;2023-03-01T00:53:47;18.53;;;10.20;;
48743;SDS011;34538;48.836;9.174;2023-03-01T00:56:16;18.57;;;10.23;;
48743;SDS011;34538;48.836;9.174;2023-03-01T00:58:42;20.20;;;10.60;;
48743;SDS011;34538;48.836;9.174;2023-03-01T01:01:10;18.30;;;10.30;;
48743;SDS011;34538;48.836;9.174;2023-03-01T01:03:43;17.90;;;8.73;;
48743;SDS011;34538;48.836;9.174;2023-03-01T01:06:17;19.37;;;10.03;;
48743;SDS011;34538;48.836;9.174;2023-03-01T01:08:45;17.50;;;9.73;;
48743;SDS011;34538;48.836;9.174;2023-03-01T01:11:12;20.17;;;9.30;;
48743;SDS011;34538;48.836;9.174;2023-03-01T01:13:39;18.80;;;9.33;;
48743;SDS011;34538;48.836;9.174;2023-03-01T01:16:06;20.83;;;9.77;;
48743;SDS011;34538;48.836;9.174;2023-03-01T01:18:34;18.10;;;9.63;;
48743;SDS011;34538;48.836;9.174;2023-03-01T01:21:05;19.47;;;9.73;;
48743;SDS011;34538;48.836;9.174;2023-03-01T01:23:35;18.63;;;9.20;;
48743;SDS011;34538;48.836;9.174;2023-03-01T01:26:03;19.40;;;10.30;;
48743;SDS011;34538;48.836;9.174;2023-03-01T01:28:31;18.60;;;10.10;;
48743;SDS011;34538;48.836;9.174;2023-03-01T01:30:58;17.57;;;9.00;;
48743;SDS011;34538;48.836;9.174;2023-03-01T01:33:25;18.90;;;10.03;;
48743;SDS011;34538;48.836;9.174;2023-03-01T01:35:52;17.93;;;9.33;;
48743;SDS011;34538;48.836;9.174;2023-03-01T01:38:19;15.73;;;8.93;;
48743;SDS011;34538;48.836;9.174;2023-03-01T01:40:48;18.07;;;10.17;;
48743;SDS011;34538;48.836;9.174;2023-03-01T01:43:18;18.77;;;9.97;;
48743;SDS011;34538;48.836;9.174;2023-03-01T01:45:47;16.05;;;9.35;;
48743;SDS011;34538;48.836;9.174;2023-03-01T01:48:16;18.33;;;9.80;;
48743;SDS011;34538;48.836;9.174;2023-03-01T01:50:49;16.73;;;9.43;;
48743;SDS011;34538;48.836;9.174;2023-03-01T01:53:21;18.20;;;9.77;;
48743;SDS011;34538;48.836;9.174;2023-03-01T01:55:51;17.10;;;10.07;;
48743;SDS011;34538;48.836;9.174;2023-03-01T01:58:23;17.43;;;9.13;;
48743;SDS011;34538;48.836;9.174;2023-03-01T02:00:51;21.37;;;10.63;;
48743;SDS011;34538;48.836;9.174;2023-03-01T02:03:21;15.40;;;9.00;;
48743;SDS011;34538;48.836;9.174;2023-03-01T02:05:55;19.57;;;10.83;;
48743;SDS011;34538;48.836;9.174;2023-03-01T02:08:27;16.40;;;9.77;;
48743;SDS011;34538;48.836;9.174;2023-03-01T02:10:57;21.43;;;9.93;;
48743;SDS011;34538;48.836;9.174;2023-03-01T02:13:25;21.50;;;10.73;;
48743;SDS011;34538;48.836;9.174;2023-03-01T02:15:53;16.47;;;9.70;;
48743;SDS011;34538;48.836;9.174;2023-03-01T02:18:21;19.93;;;9.97;;
48743;SDS011;34538;48.836;9.174;2023-03-01T02:20:54;16.73;;;9.87;;
48743;SDS011;34538;48.836;9.174;2023-03-01T02:26:01;16.73;;;9.70;;
48743;SDS011;34538;48.836;9.174;2023-03-01T02:28:35;20.00;;;10.60;;
48743;SDS011;34538;48.836;9.174;2023-03-01T02:31:04;20.43;;;10.53;;
48743;SDS011;34538;48.836;9.174;2023-03-01T02:33:50;19.53;;;9.17;;
48743;SDS011;34538;48.836;9.174;2023-03-01T02:36:20;18.47;;;10.30;;
48743;SDS011;34538;48.836;9.174;2023-03-01T02:38:49;19.20;;;9.73;;
48743;SDS011;34538;48.836;9.174;2023-03-01T02:41:19;19.17;;;10.27;;
48743;SDS011;34538;48.836;9.174;2023-03-01T02:43:49;19.13;;;10.53;;
48743;SDS011;34538;48.836;9.174;2023-03-01T02:46:17;22.77;;;10.93;;
48743;SDS011;34538;48.836;9.174;2023-03-01T02:48:45;22.37;;;11.50;;
48743;SDS011;34538;48.836;9.174;2023-03-01T02:51:24;21.33;;;10.33;;
48743;SDS011;34538;48.836;9.174;2023-03-01T02:54:00;17.20;;;9.47;;
48743;SDS011;34538;48.836;9.174;2023-03-01T02:56:34;19.17;;;10.57;;
48743;SDS011;34538;48.836;9.174;2023-03-01T02:59:03;19.63;;;10.77;;
48743;SDS011;34538;48.836;9.174;2023-03-01T03:01:31;21.13;;;11.10;;
48743;SDS011;34538;48.836;9.174;2023-03-01T03:04:04;20.47;;;10.70;;
48743;SDS011;34538;48.836;9.174;2023-03-01T03:06:31;20.40;;;11.40;;
48743;SDS011;34538;48.836;9.174;2023-03-01T03:08:59;21.70;;;10.90;;
48743;SDS011;34538;48.836;9.174;2023-03-01T03:11:26;20.13;;;10.50;;
48743;SDS011;34538;48.836;9.174;2023-03-01T03:13:53;19.07;;;10.47;;
48743;SDS011;34538;48.836;9.174;2023-03-01T03:16:21;20.07;;;10.63;;
48743;SDS011;34538;48.836;9.174;2023-03-01T03:18:48;21.73;;;10.97;;
48743;SDS011;34538;48.836;9.174;2023-03-01T03:21:15;17.37;;;9.83;;
48743;SDS011;34538;48.836;9.174;2023-03-01T03:23:43;19.70;;;10.33;;
48743;SDS011;34538;48.836;9.174;2023-03-01T03:26:10;23.13;;;11.53;;
48743;SDS011;34538;48.836;9.174;2023-03-01T03:28:40;18.05;;;9.57;;
48743;SDS011;34538;48.836;9.174;2023-03-01T03:31:07;19.77;;;10.20;;
48743;SDS011;34538;48.836;9.174;2023-03-01T03:33:35;23.33;;;10.97;;
48743;SDS011;34538;48.836;9.174;2023-03-01T03:36:03;22.95;;;12.45;;
48743;SDS011;34538;48.836;9.174;2023-03-01T03:38:30;21.00;;;11.00;;
48743;SDS011;34538;48.836;9.174;2023-03-01T03:41:01;19.87;;;11.53;;
48743;SDS011;34538;48.836;9.174;2023-03-01T03:43:30;20.42;;;11.00;;
48743;SDS011;34538;48.836;9.174;2023-03-01T03:45:58;20.00;;;11.52;;
48743;SDS011;34538;48.836;9.174;2023-03-01T03:48:26;21.40;;;11.00;;
48743;SDS011;34538;48.836;9.174;2023-03-01T03:50:55;19.88;;;10.98;;
48743;SDS011;34538;48.836;9.174;2023-03-01T03:53:23;23.00;;;11.85;;
48743;SDS011;34538;48.836;9.174;2023-03-01T03:55:52;21.23;;;10.95;;
48743;SDS011;34538;48.836;9.174;2023-03-01T03:58:21;22.67;;;11.47;;
48743;SDS011;34538;48.836;9.174;2023-03-01T04:00:49;19.30;;;10.88;;
48743;SDS011;34538;48.836;9.174;2023-03-01T04:03:17;22.70;;;11.25;;
48743;SDS011;34538;48.836;9.174;2023-03-01T04:05:46;20.70;;;11.57;;
48743;SDS011;34538;48.836;9.174;2023-03-01T04:08:16;21.25;;;11.57;;
48743;SDS011;34538;48.836;9.174;2023-03-01T04:10:45;22.98;;;10.93;;
48743;SDS011;34538;48.836;9.174;2023-03-01T04:13:14;21.40;;;11.15;;
48743;SDS011;34538;48.836;9.174;2023-03-01T04:15:42;21.08;;;11.85;;
48743;SDS011;34538;48.836;9.174;2023-03-01T04:18:09;19.02;;;11.13;;
48743;SDS011;34538;48.836;9.174;2023-03-01T04:20:38;21.23;;;11.80;;
48743;SDS011;34538;48.836;9.174;2023-03-01T04:23:05;21.73;;;10.77;;
48743;SDS011;34538;48.836;9.174;2023-03-01T04:25:45;18.97;;;11.17;;
48743;SDS011;34538;48.836;9.174;2023-03-01T04:28:14;19.23;;;10.97;;
48743;SDS011;34538;48.836;9.174;2023-03-01T04:30:41;20.23;;;10.57;;
48743;SDS011;34538;48.836;9.174;2023-03-01T04:33:08;21.85;;;10.93;;
48743;SDS011;34538;48.836;9.174;2023-03-01T04:35:36;20.90;;;11.05;;
48743;SDS011;34538;48.836;9.174;2023-03-01T04:38:05;20.98;;;10.55;;
48743;SDS011;34538;48.836;9.174;2023-03-01T04:40:32;18.38;;;10.02;;
48743;SDS011;34538;48.836;9.174;2023-03-01T04:43:00;25.65;;;12.30;;
48743;SDS011;34538;48.836;9.174;2023-03-01T04:45:28;21.25;;;11.60;;
48743;SDS011;34538;48.836;9.174;2023-03-01T04:47:55;21.00;;;11.55;;
48743;SDS011;34538;48.836;9.174;2023-03-01T04:50:23;19.45;;;10.68;;
48743;SDS011;34538;48.836;9.174;2023-03-01T04:52:50;21.27;;;11.20;;
48743;SDS011;34538;48.836;9.174;2023-03-01T04:55:18;19.83;;;10.52;;
48743;SDS011;34538;48.836;9.174;2023-03-01T04:57:45;18.45;;;11.20;;
48743;SDS011;34538;48.836;9.174;2023-03-01T05:00:13;18.90;;;10.23;;
48743;SDS011;34538;48.836;9.174;2023-03-01T05:02:47;21.70;;;10.80;;
48743;SDS011;34538;48.836;9.174;2023-03-01T05:05:18;21.70;;;12.13;;
48743;SDS011;34538;48.836;9.174;2023-03-01T05:07:51;21.85;;;11.55;;
48743;SDS011;34538;48.836;9.174;2023-03-01T05:10:18;21.25;;;11.48;;
48743;SDS011;34538;48.836;9.174;2023-03-01T05:12:45;21.10;;;11.30;;
48743;SDS011;34538;48.836;9.174;2023-03-01T05:15:14;19.20;;;11.10;;
48743;SDS011;34538;48.836;9.174;2023-03-01T05:17:41;23.85;;;11.80;;
48743;SDS011;34538;48.836;9.174;2023-03-01T05:20:08;21.20;;;11.02;;
48743;SDS011;34538;48.836;9.174;2023-03-01T05:22:36;17.55;;;10.45;;
48743;SDS011;34538;48.836;9.174;2023-03-01T05:25:03;23.50;;;11.85;;
48743;SDS011;34538;48.836;9.174;2023-03-01T05:27:30;18.77;;;11.18;;
48743;SDS011;34538;48.836;9.174;2023-03-01T05:29:58;22.13;;;11.60;;
48743;SDS011;34538;48.836;9.174;2023-03-01T05:32:38;22.85;;;10.98;;
48743;SDS011;34538;48.836;9.174;2023-03-01T05:35:06;19.77;;;10.90;;
48743;SDS011;34538;48.836;9.174;2023-03-01T05:37:33;20.25;;;11.68;;
48743;SDS011;34538;48.836;9.174;2023-03-01T05:40:00;19.52;;;10.98;;
48743;SDS011;34538;48.836;9.174;2023-03-01T05:42:28;18.52;;;10.43;;
48743;SDS011;34538;48.836;9.174;2023-03-01T05:44:55;22.50;;;11.37;;
48743;SDS011;34538;48.836;9.174;2023-03-01T05:47:22;23.08;;;11.55;;
48743;SDS011;34538;48.836;9.174;2023-03-01T05:49:50;22.20;;;12.27;;
48743;SDS011;34538;48.836;9.174;2023-03-01T05:52:17;24.15;;;11.07;;
48743;SDS011;34538;48.836;9.174;2023-03-01T05:54:44;22.42;;;11.93;;
48743;SDS011;34538;48.836;9.174;2023-03-01T05:57:11;21.15;;;11.57;;
48743;SDS011;34538;48.836;9.174;2023-03-01T05:59:37;22.05;;;11.40;;
48743;SDS011;34538;48.836;9.174;2023-03-01T06:02:04;20.02;;;10.68;;
48743;SDS011;34538;48.836;9.174;2023-03-01T06:04:31;22.45;;;11.30;;
48743;SDS011;34538;48.836;9.174;2023-03-01T06:06:59;20.27;;;12.00;;
48743;SDS011;34538;48.836;9.174;2023-03-01T06:09:26;20.58;;;11.15;;
48743;SDS011;34538;48.836;9.174;2023-03-01T06:11:52;21.02;;;11.27;;
48743;SDS011;34538;48.836;9.174;2023-03-01T06:14:19;21.05;;;11.55;;
48743;SDS011;34538;48.836;9.174;2023-03-01T06:16:46;24.00;;;12.68;;
48743;SDS011;34538;48.836;9.174;2023-03-01T06:19:13;24.58;;;11.68;;
48743;SDS011;34538;48.836;9.174;2023-03-01T06:21:40;23.73;;;11.30;;
48743;SDS011;34538;48.836;9.174;2023-03-01T06:24:08;22.65;;;10.88;;
48743;SDS011;34538;48.836;9.174;2023-03-01T06:26:35;20.08;;;11.27;;
48743;SDS011;34538;48.836;9.174;2023-03-01T06:29:01;24.50;;;12.75;;
48743;SDS011;34538;48.836;9.174;2023-03-01T06:31:28;23.65;;;12.68;;
48743;SDS011;34538;48.836;9.174;2023-03-01T06:33:55;22.73;;;11.82;;
48743;SDS011;34538;48.836;9.174;2023-03-01T06:36:22;20.60;;;11.40;;
48743;SDS011;34538;48.836;9.174;2023-03-01T06:38:49;20.52;;;11.68;;
48743;SDS011;34538;48.836;9.174;2023-03-01T06:41:17;25.02;;;11.82;;
48743;SDS011;34538;48.836;9.174;2023-03-01T06:43:43;20.17;;;11.48;;
48743;SDS011;34538;48.836;9.174;2023-03-01T06:46:10;21.38;;;11.23;;
48743;SDS011;34538;48.836;9.174;2023-03-01T06:48:37;20.27;;;12.18;;
48743;SDS011;34538;48.836;9.174;2023-03-01T06:51:04;22.40;;;11.82;;
48743;SDS011;34538;48.836;9.174;2023-03-01T06:53:31;23.00;;;11.63;;
48743;SDS011;34538;48.836;9.174;2023-03-01T06:55:58;21.27;;;10.70;;
48743;SDS011;34538;48.836;9.174;2023-03-01T06:58:26;30.98;;;13.07;;
48743;SDS011;34538;48.836;9.174;2023-03-01T07:00:53;21.20;;;12.18;;
48743;SDS011;34538;48.836;9.174;2023-03-01T07:03:20;24.77;;;11.77;;
48743;SDS011;34538;48.836;9.174;2023-03-01T07:05:48;20.85;;;12.95;;
48743;SDS011;34538;48.836;9.174;2023-03-01T07:08:16;26.50;;;13.02;;
48743;SDS011;34538;48.836;9.174;2023-03-01T07:10:43;23.63;;;13.13;;
48743;SDS011;34538;48.836;9.174;2023-03-01T07:13:10;24.55;;;12.40;;
48743;SDS011;34538;48.836;9.174;2023-03-01T07:15:39;18.98;;;11.52;;
48743;SDS011;34538;48.836;9.174;2023-03-01T07:18:06;24.02;;;13.55;;
48743;SDS011;34538;48.836;9.174;2023-03-01T07:20:33;20.75;;;11.77;;
48743;SDS011;34538;48.836;9.174;2023-03-01T07:23:01;23.02;;;11.63;;
48743;SDS011;34538;48.836;9.174;2023-03-01T07:25:28;22.65;;;13.18;;
48743;SDS011;34538;48.836;9.174;2023-03-01T07:27:54;25.13;;;12.32;;
48743;SDS011;34538;48.836;9.174;2023-03-01T07:30:21;21.63;;;11.43;;
48743;SDS011;34538;48.836;9.174;2023-03-01T07:32:52;26.00;;;12.95;;
48743;SDS011;34538;48.836;9.174;2023-03-01T07:35:19;23.08;;;12.80;;
48743;SDS011;34538;48.836;9.174;2023-03-01T07:37:46;26.00;;;12.63;;
48743;SDS011;34538;48.836;9.174;2023-03-01T07:40:13;23.13;;;12.23;;
48743;SDS011;34538;48.836;9.174;2023-03-01T07:42:40;21.65;;;11.68;;
48743;SDS011;34538;48.836;9.174;2023-03-01T07:45:07;25.42;;;13.15;;
48743;SDS011;34538;48.836;9.174;2023-03-01T07:47:35;24.90;;;12.43;;
48743;SDS011;34538;48.836;9.174;2023-03-01T07:50:04;23.65;;;12.30;;
48743;SDS011;34538;48.836;9.174;2023-03-01T07:52:31;25.67;;;12.38;;
48743;SDS011;34538;48.836;9.174;2023-03-01T07:54:58;23.35;;;13.20;;
48743;SDS011;34538;48.836;9.174;2023-03-01T07:57:25;19.33;;;11.40;;
48743;SDS011;34538;48.836;9.174;2023-03-01T07:59:52;26.10;;;13.63;;
48743;SDS011;34538;48.836;9.174;2023-03-01T08:02:18;24.92;;;12.63;;
48743;SDS011;34538;48.836;9.174;2023-03-01T08:04:45;22.30;;;12.32;;
48743;SDS011;34538;48.836;9.174;2023-03-01T08:07:13;25.00;;;12.93;;
48743;SDS011;34538;48.836;9.174;2023-03-01T08:09:40;22.13;;;11.48;;
48743;SDS011;34538;48.836;9.174;2023-03-01T08:12:07;26.60;;;12.95;;
48743;SDS011;34538;48.836;9.174;2023-03-01T08:14:34;24.67;;;13.05;;
48743;SDS011;34538;48.836;9.174;2023-03-01T08:17:01;24.83;;;13.18;;
48743;SDS011;34538;48.836;9.174;2023-03-01T08:19:29;22.20;;;11.75;;
48743;SDS011;34538;48.836;9.174;2023-03-01T08:21:56;24.73;;;13.35;;
48743;SDS011;34538;48.836;9.174;2023-03-01T08:24:25;21.65;;;11.90;;
48743;SDS011;34538;48.836;9.174;2023-03-01T08:26:51;22.70;;;12.48;;
48743;SDS011;34538;48.836;9.174;2023-03-01T08:29:18;25.30;;;13.23;;
48743;SDS011;34538;48.836;9.174;2023-03-01T08:31:45;24.25;;;12.02;;
48743;SDS011;34538;48.836;9.174;2023-03-01T08:34:13;22.40;;;12.70;;
48743;SDS011;34538;48.836;9.174;2023-03-01T08:36:42;25.23;;;12.10;;
48743;SDS011;34538;48.836;9.174;2023-03-01T08:39:11;23.42;;;12.95;;
48743;SDS011;34538;48.836;9.174;2023-03-01T08:41:40;25.73;;;12.95;;
48743;SDS011;34538;48.836;9.174;2023-03-01T08:44:08;23.20;;;12.23;;
48743;SDS011;34538;48.836;9.174;2023-03-01T08:46:36;23.17;;;12.45;;
48743;SDS011;34538;48.836;9.174;2023-03-01T08:49:05;23.25;;;12.90;;
48743;SDS011;34538;48.836;9.174;2023-03-01T08:51:33;22.67;;;12.27;;
48743;SDS011;34538;48.836;9.174;2023-03-01T08:54:01;25.55;;;11.80;;
48743;SDS011;34538;48.836;9.174;2023-03-01T08:56:28;26.10;;;12.68;;
48743;SDS011;34538;48.836;9.174;2023-03-01T08:58:57;21.55;;;11.48;;
48743;SDS011;34538;48.836;9.174;2023-03-01T09:01:23;23.58;;;13.50;;
48743;SDS011;34538;48.836;9.174;2023-03-01T09:03:50;25.00;;;13.02;;
48743;SDS011;34538;48.836;9.174;2023-03-01T09:06:18;25.42;;;13.13;;
48743;SDS011;34538;48.836;9.174;2023-03-01T09:08:46;26.85;;;13.68;;
48743;SDS011;34538;48.836;9.174;2023-03-01T09:11:15;21.00;;;12.43;;
48743;SDS011;34538;48.836;9.174;2023-03-01T09:13:43;20.92;;;11.95;;
48743;SDS011;34538;48.836;9.174;2023-03-01T09:16:12;23.65;;;12.07;;
48743;SDS011;34538;48.836;9.174;2023-03-01T09:18:41;24.30;;;12.73;;
48743;SDS011;34538;48.836;9.174;2023-03-01T09:21:10;23.60;;;13.02;;
48743;SDS011;34538;48.836;9.174;2023-03-01T09:23:38;22.05;;;11.98;;
48743;SDS011;34538;48.836;9.174;2023-03-01T09:26:06;23.27;;;11.93;;
48743;SDS011;34538;48.836;9.174;2023-03-01T09:28:34;23.42;;;12.27;;
48743;SDS011;34538;48.836;9.174;2023-03-01T09:31:01;25.40;;;12.60;;
48743;SDS011;34538;48.836;9.174;2023-03-01T09:33:30;22.52;;;12.15;;
48743;SDS011;34538;48.836;9.174;2023-03-01T09:35:58;25.45;;;12.93;;
48743;SDS011;34538;48.836;9.174;2023-03-01T09:38:25;22.80;;;12.60;;
48743;SDS011;34538;48.836;9.174;2023-03-01T09:40:52;24.08;;;11.70;;
48743;SDS011;34538;48.836;9.174;2023-03-01T09:43:21;21.52;;;11.85;;
48743;SDS011;34538;48.836;9.174;2023-03-01T09:45:52;21.90;;;12.02;;
48743;SDS011;34538;48.836;9.174;2023-03-01T09:48:21;23.95;;;12.32;;
48743;SDS011;34538;48.836;9.174;2023-03-01T09:50:53;22.40;;;12.30;;
48743;SDS011;34538;48.836;9.174;2023-03-01T09:53:21;23.52;;;12.60;;
48743;SDS011;34538;48.836;9.174;2023-03-01T09:55:51;26.70;;;12.70;;
48743;SDS011;34538;48.836;9.174;2023-03-01T09:58:29;22.33;;;11.68;;
48743;SDS011;34538;48.836;9.174;2023-03-01T10:01:05;22.75;;;12.25;;
48743;SDS011;34538;48.836;9.174;2023-03-01T10:03:55;21.17;;;12.00;;
48743;SDS011;34538;48.836;9.174;2023-03-01T10:06:34;19.73;;;11.45;;
48743;SDS011;34538;48.836;9.174;2023-03-01T10:09:02;22.80;;;12.27;;
48743;SDS011;34538;48.836;9.174;2023-03-01T10:11:35;23.35;;;12.30;;
48743;SDS011;34538;48.836;9.174;2023-03-01T10:14:05;21.90;;;12.35;;
48743;SDS011;34538;48.836;9.174;2023-03-01T10:16:42;21.42;;;12.27;;
48743;SDS011;34538;48.836;9.174;2023-03-01T10:19:17;19.90;;;11.45;;
48743;SDS011;34538;48.836;9.174;2023-03-01T10:21:50;21.85;;;12.13;;
48743;SDS011;34538;48.836;9.174;2023-03-01T10:24:18;19.58;;;11.48;;
48743;SDS011;34538;48.836;9.174;2023-03-01T10:26:47;25.33;;;12.80;;
48743;SDS011;34538;48.836;9.174;2023-03-01T10:29:20;22.08;;;12.63;;
48743;SDS011;34538;48.836;9.174;2023-03-01T10:31:52;22.40;;;11.68;;
48743;SDS011;34538;48.836;9.174;2023-03-01T10:34:21;21.63;;;12.50;;
48743;SDS011;34538;48.836;9.174;2023-03-01T10:36:55;22.73;;;12.40;;
48743;SDS011;34538;48.836;9.174;2023-03-01T10:39:24;23.23;;;12.73;;
48743;SDS011;34538;48.836;9.174;2023-03-01T10:41:53;19.92;;;10.85;;
48743;SDS011;34538;48.836;9.174;2023-03-01T10:44:42;19.03;;;11.67;;
48743;SDS011;34538;48.836;9.174;2023-03-01T10:47:20;20.73;;;11.73;;
48743;SDS011;34538;48.836;9.174;2023-03-01T10:49:56;20.48;;;11.07;;
48743;SDS011;34538;48.836;9.174;2023-03-01T10:52:28;19.80;;;11.65;;
48743;SDS011;34538;48.836;9.174;2023-03-01T10:54:58;20.17;;;12.02;;
48743;SDS011;34538;48.836;9.174;2023-03-01T10:57:32;19.88;;;11.30;;
48743;SDS011;34538;48.836;9.174;2023-03-01T11:00:16;20.55;;;11.63;;
48743;SDS011;34538;48.836;9.174;2023-03-01T11:02:49;19.48;;;10.77;;
48743;SDS011;34538;48.836;9.174;2023-03-01T11:05:21;19.60;;;11.15;;
48743;SDS011;34538;48.836;9.174;2023-03-01T11:07:51;20.17;;;10.70;;
48743;SDS011;34538;48.836;9.174;2023-03-01T11:10:21;21.92;;;11.15;;
48743;SDS011;34538;48.836;9.174;2023-03-01T11:12:50;21.70;;;12.45;;
48743;SDS011;34538;48.836;9.174;2023-03-01T11:15:24;18.10;;;10.95;;
48743;SDS011;34538;48.836;9.174;2023-03-01T11:17:52;19.92;;;10.70;;
48743;SDS011;34538;48.836;9.174;2023-03-01T11:20:24;18.17;;;11.07;;
48743;SDS011;34538;48.836;9.174;2023-03-01T11:22:58;17.70;;;10.40;;
48743;SDS011;34538;48.836;9.174;2023-03-01T11:25:29;19.15;;;10.60;;
48743;SDS011;34538;48.836;9.174;2023-03-01T11:28:00;19.52;;;11.27;;
48743;SDS011;34538;48.836;9.174;2023-03-01T11:30:31;20.73;;;11.30;;
48743;SDS011;34538;48.836;9.174;2023-03-01T11:33:10;20.30;;;11.20;;
48743;SDS011;34538;48.836;9.174;2023-03-01T11:35:45;20.77;;;12.00;;
48743;SDS011;34538;48.836;9.174;2023-03-01T11:38:20;20.00;;;10.57;;
48743;SDS011;34538;48.836;9.174;2023-03-01T11:40:49;18.60;;;10.88;;
48743;SDS011;34538;48.836;9.174;2023-03-01T11:43:26;19.10;;;10.52;;
48743;SDS011;34538;48.836;9.174;2023-03-01T11:51:37;18.05;;;9.95;;
48743;SDS011;34538;48.836;9.174;2023-03-01T11:54:18;18.63;;;10.55;;
48743;SDS011;34538;48.836;9.174;2023-03-01T11:56:54;15.65;;;9.63;;
48743;SDS011;34538;48.836;9.174;2023-03-01T11:59:37;15.70;;;9.77;;
48743;SDS011;34538;48.836;9.174;2023-03-01T12:02:34;18.20;;;10.07;;
48743;SDS011;34538;48.836;9.174;2023-03-01T12:05:42;16.95;;;9.80;;
48743;SDS011;34538;48.836;9.174;2023-03-01T12:08:24;19.73;;;10.45;;
48743;SDS011;34538;48.836;9.174;2023-03-01T12:11:02;19.98;;;10.65;;
48743;SDS011;34538;48.836;9.174;2023-03-01T12:13:47;24.08;;;10.55;;
48743;SDS011;34538;48.836;9.174;2023-03-01T12:16:40;19.27;;;10.00;;
48743;SDS011;34538;48.836;9.174;2023-03-01T12:19:33;22.50;;;9.80;;
48743;SDS011;34538;48.836;9.174;2023-03-01T12:22:17;19.70;;;10.98;;
48743;SDS011;34538;48.836;9.174;2023-03-01T12:30:50;17.80;;;10.25;;
48743;SDS011;34538;48.836;9.174;2023-03-01T12:33:28;21.92;;;10.65;;
48743;SDS011;34538;48.836;9.174;2023-03-01T12:39:03;18.38;;;10.25;;
48743;SDS011;34538;48.836;9.174;2023-03-01T12:41:51;16.65;;;9.65;;
48743;SDS011;34538;48.836;9.174;2023-03-01T12:44:33;15.25;;;9.57;;
48743;SDS011;34538;48.836;9.174;2023-03-01T12:47:13;18.05;;;10.32;;
48743;SDS011;34538;48.836;9.174;2023-03-01T12:49:49;18.33;;;10.00;;
48743;SDS011;34538;48.836;9.174;2023-03-01T12:52:22;17.30;;;9.82;;
48743;SDS011;34538;48.836;9.174;2023-03-01T12:54:55;16.52;;;10.00;;
48743;SDS011;34538;48.836;9.174;2023-03-01T12:57:28;18.90;;;11.27;;
48743;SDS011;34538;48.836;9.174;2023-03-01T13:00:10;22.05;;;11.52;;
48743;SDS011;34538;48.836;9.174;2023-03-01T13:02:49;19.00;;;10.70;;
48743;SDS011;34538;48.836;9.174;2023-03-01T13:05:24;16.33;;;10.18;;
48743;SDS011;34538;48.836;9.174;2023-03-01T13:08:01;16.48;;;10.27;;
48743;SDS011;34538;48.836;9.174;2023-03-01T13:10:39;18.15;;;10.25;;
48743;SDS011;34538;48.836;9.174;2023-03-01T13:13:12;18.33;;;11.50;;
48743;SDS011;34538;48.836;9.174;2023-03-01T13:15:45;20.25;;;10.57;;
48743;SDS011;34538;48.836;9.174;2023-03-01T13:18:29;17.55;;;10.63;;
48743;SDS011;34538;48.836;9.174;2023-03-01T13:20:58;18.08;;;11.27;;
48743;SDS011;34538;48.836;9.174;2023-03-01T13:23:31;15.25;;;9.25;;
48743;SDS011;34538;48.836;9.174;2023-03-01T13:26:05;17.60;;;10.05;;
48743;SDS011;34538;48.836;9.174;2023-03-01T13:28:49;19.88;;;10.55;;
48743;SDS011;34538;48.836;9.174;2023-03-01T13:37:19;18.98;;;10.93;;
48743;SDS011;34538;48.836;9.174;2023-03-01T13:39:47;17.52;;;10.05;;
48743;SDS011;34538;48.836;9.174;2023-03-01T13:42:35;19.63;;;10.98;;
48743;SDS011;34538;48.836;9.174;2023-03-01T13:45:24;17.15;;;10.27;;
48743;SDS011;34538;48.836;9.174;2023-03-01T13:48:01;18.92;;;10.65;;
48743;SDS011;34538;48.836;9.174;2023-03-01T13:50:35;18.43;;;10.63;;
48743;SDS011;34538;48.836;9.174;2023-03-01T13:53:10;18.27;;;10.30;;
48743;SDS011;34538;48.836;9.174;2023-03-01T13:55:42;20.10;;;11.73;;
48743;SDS011;34538;48.836;9.174;2023-03-01T13:58:15;19.55;;;11.02;;
48743;SDS011;34538;48.836;9.174;2023-03-01T14:00:54;19.48;;;11.18;;
48743;SDS011;34538;48.836;9.174;2023-03-01T14:03:22;19.30;;;11.05;;
48743;SDS011;34538;48.836;9.174;2023-03-01T14:06:07;18.85;;;10.48;;
48743;SDS011;34538;48.836;9.174;2023-03-01T14:08:38;20.05;;;10.88;;
48743;SDS011;34538;48.836;9.174;2023-03-01T14:14:19;20.55;;;11.10;;
48743;SDS011;34538;48.836;9.174;2023-03-01T14:17:10;19.20;;;11.20;;
48743;SDS011;34538;48.836;9.174;2023-03-01T14:19:48;17.42;;;11.32;;
48743;SDS011;34538;48.836;9.174;2023-03-01T14:22:24;19.23;;;10.88;;
48743;SDS011;34538;48.836;9.174;2023-03-01T14:24:54;20.50;;;11.77;;
48743;SDS011;34538;48.836;9.174;2023-03-01T14:27:25;18.73;;;11.30;;
48743;SDS011;34538;48.836;9.174;2023-03-01T14:29:56;21.65;;;11.20;;
48743;SDS011;34538;48.836;9.174;2023-03-01T14:32:25;20.70;;;12.05;;
48743;SDS011;34538;48.836;9.174;2023-03-01T14:34:53;19.67;;;10.95;;
48743;SDS011;34538;48.836;9.174;2023-03-01T14:37:22;18.92;;;11.52;;
48743;SDS011;34538;48.836;9.174;2023-03-01T14:39:51;20.23;;;12.13;;
48743;SDS011;34538;48.836;9.174;2023-03-01T14:42:19;23.50;;;12.48;;
48743;SDS011;34538;48.836;9.174;2023-03-01T14:44:48;21.30;;;12.70;;
48743;SDS011;34538;48.836;9.174;2023-03-01T14:47:19;23.38;;;12.02;;
48743;SDS011;34538;48.836;9.174;2023-03-01T14:49:53;20.98;;;11.82;;
48743;SDS011;34538;48.836;9.174;2023-03-01T14:52:28;19.70;;;11.55;;
48743;SDS011;34538;48.836;9.174;2023-03-01T14:55:01;23.30;;;13.15;;
48743;SDS011;34538;48.836;9.174;2023-03-01T14:57:31;19.90;;;11.57;;
48743;SDS011;34538;48.836;9.174;2023-03-01T14:59:58;19.40;;;11.07;;
48743;SDS011;34538;48.836;9.174;2023-03-01T15:02:30;20.15;;;11.38;;
48743;SDS011;34538;48.836;9.174;2023-03-01T15:04:58;20.55;;;11.60;;
48743;SDS011;34538;48.836;9.174;2023-03-01T15:07:30;18.77;;;11.10;;
48743;SDS011;34538;48.836;9.174;2023-03-01T15:10:00;18.48;;;11.27;;